Time;durP1;ratioP1;P1;durP2;ratioP2;P2;SDS_P1;SDS_P2;PMS_P1;PMS_P2;Temp;Humidity;BMP_temperature;BMP_pressure;BME280_temperature;BME280_humidity;BME280_pressure;Samples;Min_cycle;Max_cycle;Signal;HPM_P1;HPM_P2
2021/08/09 00:00:11;;;;;;;2.20;2.10;;;19.20;60.10;;;;;;5033173;28;20525;-85
2021/08/09 00:02:37;;;;;;;2.22;2.13;;;19.20;60.10;;;;;;5034332;28;20032;-84
2021/08/09 00:05:04;;;;;;;2.40;2.30;;;19.20;60.20;;;;;;5035200;28;20435;-84
2021/08/09 00:07:30;;;;;;;2.17;2.08;;;19.20;60.30;;;;;;5032930;28;20041;-85
2021/08/09 00:09:56;;;;;;;2.17;2.08;;;19.20;60.30;;;;;;5035310;28;20053;-85
2021/08/09 00:12:22;;;;;;;2.85;2.33;;;19.20;60.40;;;;;;5017458;28;20362;-85
2021/08/09 00:14:48;;;;;;;2.45;2.35;;;19.20;60.40;;;;;;5031636;28;20030;-83
2021/08/09 00:17:14;;;;;;;2.22;2.13;;;19.20;60.50;;;;;;5036841;28;20482;-85
2021/08/09 00:19:41;;;;;;;2.78;2.58;;;19.10;60.50;;;;;;5035590;28;20497;-85
2021/08/09 00:22:07;;;;;;;2.42;2.33;;;19.20;60.60;;;;;;5035335;28;20033;-85
2021/08/09 00:24:33;;;;;;;6.47;2.33;;;19.10;60.60;;;;;;5034234;28;20409;-85
2021/08/09 00:26:59;;;;;;;2.22;2.13;;;19.10;60.60;;;;;;5031461;28;22223;-85
2021/08/09 00:29:25;;;;;;;2.13;2.03;;;19.10;60.70;;;;;;5035165;28;20029;-84
2021/08/09 00:31:51;;;;;;;2.10;2.00;;;19.10;60.80;;;;;;5035373;28;20029;-85
2021/08/09 00:34:17;;;;;;;2.55;2.45;;;19.00;60.80;;;;;;5017100;28;20040;-84
2021/08/09 00:36:43;;;;;;;2.10;2.00;;;19.10;61.00;;;;;;5033780;28;20036;-84
2021/08/09 00:39:09;;;;;;;2.50;2.40;;;19.00;61.00;;;;;;5032430;28;20485;-84
2021/08/09 00:41:35;;;;;;;2.33;2.22;;;19.00;61.10;;;;;;5033985;28;20029;-83
2021/08/09 00:44:01;;;;;;;2.70;2.08;;;19.00;61.20;;;;;;5034678;28;20018;-84
2021/08/09 00:46:29;;;;;;;2.50;2.40;;;18.90;61.30;;;;;;5032424;28;20049;-85
2021/08/09 00:48:56;;;;;;;2.30;2.20;;;18.90;61.50;;;;;;5034543;28;20272;-84
2021/08/09 00:51:22;;;;;;;4.47;2.60;;;18.90;61.40;;;;;;5034377;28;20461;-84
2021/08/09 00:53:49;;;;;;;2.42;2.33;;;18.80;61.50;;;;;;5028699;28;20033;-84
2021/08/09 00:56:15;;;;;;;2.20;2.10;;;18.80;61.60;;;;;;5035540;28;20037;-85
2021/08/09 00:58:41;;;;;;;2.30;2.20;;;18.80;61.70;;;;;;5032771;28;20042;-86
2021/08/09 01:01:07;;;;;;;2.63;2.53;;;18.80;61.80;;;;;;5016866;28;20044;-84
2021/08/09 01:03:33;;;;;;;2.25;2.15;;;18.70;61.80;;;;;;5033623;28;20032;-85
2021/08/09 01:05:59;;;;;;;2.47;2.38;;;18.80;62.00;;;;;;5031003;28;20056;-84
2021/08/09 01:09:02;;;;;;;2.38;2.28;;;18.70;62.00;;;;;;5035504;28;20029;-86
2021/08/09 01:11:44;;;;;;;2.20;2.10;;;18.70;62.10;;;;;;5044746;28;20401;-82
2021/08/09 01:14:27;;;;;;;2.40;2.30;;;18.70;62.10;;;;;;5035444;28;20038;-85
2021/08/09 01:16:53;;;;;;;2.30;2.20;;;18.60;62.10;;;;;;5034206;28;20060;-83
2021/08/09 01:19:49;;;;;;;2.40;2.30;;;18.60;62.10;;;;;;5000458;28;20033;-84
2021/08/09 01:22:21;;;;;;;2.20;2.10;;;18.60;62.30;;;;;;5032901;28;20493;-84
2021/08/09 01:24:51;;;;;;;2.40;2.30;;;18.50;62.30;;;;;;5033297;28;20021;-85
2021/08/09 01:27:37;;;;;;;2.33;2.22;;;18.50;62.40;;;;;;5033299;28;20386;-85
2021/08/09 01:30:05;;;;;;;2.53;2.42;;;18.50;62.50;;;;;;5016051;28;20394;-84
2021/08/09 01:32:32;;;;;;;2.38;2.28;;;18.50;62.50;;;;;;5016651;28;20511;-85
2021/08/09 01:34:58;;;;;;;2.22;2.13;;;18.50;62.60;;;;;;5033879;28;20072;-85
2021/08/09 01:37:24;;;;;;;2.55;2.40;;;18.50;62.70;;;;;;5016653;28;20017;-85
2021/08/09 01:39:50;;;;;;;2.20;2.10;;;18.40;62.70;;;;;;5016867;28;20022;-85
2021/08/09 01:42:16;;;;;;;2.13;2.03;;;18.40;62.80;;;;;;5031831;28;20024;-85
2021/08/09 01:44:44;;;;;;;2.55;2.45;;;18.40;62.80;;;;;;5031312;28;20057;-85
2021/08/09 01:47:10;;;;;;;2.38;2.20;;;18.40;62.90;;;;;;5035934;28;20402;-85
2021/08/09 01:49:36;;;;;;;2.10;2.00;;;18.40;63.00;;;;;;5016806;28;20033;-85
2021/08/09 01:52:02;;;;;;;2.30;2.20;;;18.30;63.00;;;;;;5016540;28;20044;-84
2021/08/09 01:54:29;;;;;;;6.40;2.25;;;18.30;63.10;;;;;;5033157;28;20037;-85
2021/08/09 01:56:55;;;;;;;2.30;2.20;;;18.30;63.20;;;;;;5012653;28;20497;-84
2021/08/09 01:59:22;;;;;;;2.10;2.00;;;18.30;63.20;;;;;;5045868;28;20032;-85
2021/08/09 02:01:48;;;;;;;2.20;2.10;;;18.30;63.30;;;;;;5030902;28;20478;-85
2021/08/09 02:04:15;;;;;;;2.72;2.53;;;18.30;63.30;;;;;;5013656;28;20026;-82
2021/08/09 02:06:42;;;;;;;2.30;2.20;;;18.30;63.40;;;;;;5026265;28;20033;-84
2021/08/09 02:09:08;;;;;;;2.30;2.20;;;18.20;63.40;;;;;;5028197;28;20033;-84
2021/08/09 02:12:01;;;;;;;2.10;2.00;;;18.20;63.50;;;;;;5031004;28;20489;-84
2021/08/09 02:14:31;;;;;;;2.10;2.00;;;18.10;63.60;;;;;;5029462;28;20053;-85
2021/08/09 02:17:16;;;;;;;2.15;2.05;;;18.10;63.60;;;;;;5030458;28;20044;-85
2021/08/09 02:20:06;;;;;;;5.20;2.53;;;18.10;63.80;;;;;;5030700;28;20029;-83
2021/08/09 02:22:37;;;;;;;9.48;2.28;;;18.10;63.80;;;;;;5028419;28;20406;-86
2021/08/09 02:25:15;;;;;;;5.40;2.10;;;18.10;63.80;;;;;;5045576;28;20029;-85
2021/08/09 02:27:54;;;;;;;2.03;1.92;;;18.10;63.90;;;;;;5029422;28;20486;-85
2021/08/09 02:30:20;;;;;;;2.20;2.10;;;18.10;63.90;;;;;;5027910;28;20033;-83
2021/08/09 02:32:47;;;;;;;2.00;1.90;;;18.00;64.00;;;;;;5029317;28;20487;-85
2021/08/09 02:35:15;;;;;;;2.10;2.00;;;18.00;64.10;;;;;;5030353;28;20041;-85
2021/08/09 02:37:42;;;;;;;2.30;2.20;;;18.00;64.10;;;;;;5040570;28;20041;-85
2021/08/09 02:40:09;;;;;;;2.13;2.03;;;18.00;64.20;;;;;;5041673;28;20017;-85
2021/08/09 02:42:35;;;;;;;2.35;2.25;;;18.00;64.20;;;;;;5034746;28;20036;-84
2021/08/09 02:45:01;;;;;;;2.00;1.90;;;17.90;64.20;;;;;;5016291;28;20378;-84
2021/08/09 02:47:27;;;;;;;2.20;2.10;;;18.00;64.30;;;;;;5037098;28;20044;-84
2021/08/09 02:49:53;;;;;;;2.03;1.92;;;17.90;64.30;;;;;;5051366;28;20378;-85
2021/08/09 02:52:19;;;;;;;2.17;2.08;;;17.90;64.30;;;;;;5018658;28;20034;-85
2021/08/09 02:54:46;;;;;;;2.13;2.03;;;18.00;64.40;;;;;;5019339;28;20057;-85
2021/08/09 02:57:16;;;;;;;2.05;1.95;;;17.90;64.40;;;;;;5017650;28;20024;-84
2021/08/09 02:59:42;;;;;;;2.20;2.10;;;17.90;64.50;;;;;;5016451;28;20029;-85
2021/08/09 03:02:08;;;;;;;2.00;1.90;;;17.90;64.50;;;;;;5046653;28;20037;-84
2021/08/09 03:04:35;;;;;;;5.20;2.30;;;17.90;64.60;;;;;;5021210;28;20037;-84
2021/08/09 03:07:05;;;;;;;2.00;1.90;;;17.90;64.60;;;;;;5019073;28;20024;-84
2021/08/09 03:09:35;;;;;;;2.00;1.90;;;17.90;64.60;;;;;;5018893;28;20474;-84
2021/08/09 03:12:01;;;;;;;2.17;2.08;;;17.90;64.70;;;;;;5015621;28;20474;-84
2021/08/09 03:14:30;;;;;;;2.00;1.90;;;17.90;64.70;;;;;;5019379;28;20501;-84
2021/08/09 03:17:00;;;;;;;2.42;2.22;;;17.90;64.80;;;;;;5035166;28;20046;-85
2021/08/09 03:19:26;;;;;;;2.00;1.90;;;17.90;64.80;;;;;;5016882;28;20029;-84
2021/08/09 03:21:54;;;;;;;2.03;1.92;;;17.90;64.80;;;;;;5033843;28;20025;-85
2021/08/09 03:24:20;;;;;;;2.05;1.95;;;17.90;64.80;;;;;;5034448;28;20040;-86
2021/08/09 03:26:46;;;;;;;1.92;1.83;;;17.90;64.90;;;;;;5031461;28;20414;-83
2021/08/09 03:29:13;;;;;;;2.35;1.85;;;17.90;64.90;;;;;;5038603;28;20029;-85
2021/08/09 03:31:39;;;;;;;1.98;1.88;;;17.90;64.90;;;;;;5035864;28;20042;-84
2021/08/09 03:34:05;;;;;;;2.17;2.08;;;17.90;64.90;;;;;;5035483;28;20045;-85
2021/08/09 03:36:31;;;;;;;2.25;2.15;;;17.90;64.90;;;;;;5034880;28;20044;-85
2021/08/09 03:38:57;;;;;;;2.03;1.92;;;17.90;65.00;;;;;;5031009;28;20030;-85
2021/08/09 03:41:23;;;;;;;2.10;1.95;;;17.90;65.00;;;;;;5037818;28;20101;-84
2021/08/09 03:43:49;;;;;;;2.00;1.90;;;18.00;65.10;;;;;;5034873;28;20034;-86
2021/08/09 03:46:16;;;;;;;2.00;1.90;;;18.00;65.20;;;;;;5035215;28;20041;-85
2021/08/09 03:48:42;;;;;;;2.10;2.00;;;18.00;65.20;;;;;;5034784;28;20041;-84
2021/08/09 03:51:08;;;;;;;1.90;1.80;;;18.00;65.30;;;;;;5015796;28;20033;-85
2021/08/09 03:53:34;;;;;;;2.10;2.00;;;17.90;65.20;;;;;;5017406;28;20037;-85
2021/08/09 03:56:00;;;;;;;2.30;2.20;;;18.00;65.30;;;;;;5047009;28;20044;-85
2021/08/09 03:58:26;;;;;;;2.05;1.95;;;18.00;65.30;;;;;;5039004;28;20397;-85
2021/08/09 04:00:52;;;;;;;1.70;1.60;;;18.00;65.40;;;;;;5034979;28;20033;-84
2021/08/09 04:03:18;;;;;;;1.95;1.85;;;18.00;65.40;;;;;;5033236;28;20461;-83
2021/08/09 04:05:44;;;;;;;1.80;1.70;;;18.00;65.50;;;;;;5031515;28;20037;-85
2021/08/09 04:08:10;;;;;;;1.80;1.70;;;18.00;65.50;;;;;;5037659;28;20029;-84
2021/08/09 04:10:38;;;;;;;2.47;2.30;;;18.00;65.50;;;;;;5035919;28;20029;-84
2021/08/09 04:13:04;;;;;;;2.00;1.90;;;18.00;65.50;;;;;;5034530;28;20038;-84
2021/08/09 04:15:30;;;;;;;2.10;2.00;;;18.00;65.50;;;;;;5017145;28;20409;-85
2021/08/09 04:17:56;;;;;;;2.10;2.00;;;18.00;65.50;;;;;;5028132;28;20029;-84
2021/08/09 04:20:22;;;;;;;2.08;1.98;;;18.00;65.60;;;;;;5037114;28;20474;-85
2021/08/09 04:22:48;;;;;;;2.00;1.90;;;18.00;65.50;;;;;;5035412;28;20029;-85
2021/08/09 04:25:14;;;;;;;2.08;1.98;;;18.10;65.60;;;;;;5033181;28;20045;-85
2021/08/09 04:27:40;;;;;;;2.00;1.90;;;18.00;65.60;;;;;;5033023;28;20087;-85
2021/08/09 04:30:06;;;;;;;2.00;1.90;;;18.00;65.60;;;;;;5031983;28;20470;-85
2021/08/09 04:32:40;;;;;;;2.30;2.15;;;18.00;65.70;;;;;;5034085;28;20061;-85
2021/08/09 04:35:10;;;;;;;2.22;2.13;;;18.00;65.70;;;;;;5019794;28;20056;-83
2021/08/09 04:37:37;;;;;;;2.20;2.10;;;18.10;65.80;;;;;;5035158;28;20029;-85
2021/08/09 04:40:04;;;;;;;2.03;1.92;;;18.00;65.80;;;;;;5016080;28;20038;-85
2021/08/09 04:42:30;;;;;;;2.28;2.17;;;18.10;65.90;;;;;;5034865;28;20084;-84
2021/08/09 04:44:56;;;;;;;2.00;1.90;;;18.10;65.80;;;;;;5030793;28;20033;-85
2021/08/09 04:47:22;;;;;;;2.20;2.10;;;18.10;65.80;;;;;;5034999;28;20040;-85
2021/08/09 04:49:48;;;;;;;2.10;2.00;;;18.10;65.80;;;;;;5017367;28;20036;-85
2021/08/09 04:52:15;;;;;;;2.20;2.10;;;18.10;65.80;;;;;;5035013;28;20029;-85
2021/08/09 04:54:41;;;;;;;2.10;2.00;;;18.10;65.80;;;;;;5033798;28;20024;-84
2021/08/09 04:57:08;;;;;;;2.20;2.10;;;18.10;65.90;;;;;;5031159;28;20046;-85
2021/08/09 04:59:34;;;;;;;2.10;2.00;;;18.10;65.90;;;;;;5033944;28;20033;-85
2021/08/09 05:02:00;;;;;;;2.10;2.00;;;18.10;66.00;;;;;;5035282;28;20041;-85
2021/08/09 05:04:26;;;;;;;2.00;1.90;;;18.10;66.10;;;;;;5034864;28;20478;-85
2021/08/09 05:06:52;;;;;;;2.22;2.13;;;18.10;66.10;;;;;;5033555;28;20026;-85
2021/08/09 05:09:18;;;;;;;2.53;2.38;;;18.10;66.20;;;;;;5033722;28;20473;-84
2021/08/09 05:11:44;;;;;;;2.17;2.08;;;18.10;66.10;;;;;;5030477;28;20045;-85
2021/08/09 05:14:11;;;;;;;3.47;2.28;;;18.10;66.20;;;;;;5033643;28;20041;-85
2021/08/09 05:16:39;;;;;;;2.33;1.98;;;18.10;66.20;;;;;;5033970;28;20038;-85
2021/08/09 05:19:05;;;;;;;2.35;2.25;;;18.10;66.30;;;;;;5032794;28;20037;-85
2021/08/09 05:21:32;;;;;;;2.20;2.10;;;18.10;66.30;;;;;;5034536;28;20037;-84
2021/08/09 05:24:01;;;;;;;2.17;2.08;;;18.10;66.40;;;;;;5030719;28;20034;-84
2021/08/09 05:26:28;;;;;;;2.22;2.13;;;18.10;66.30;;;;;;5033779;28;20049;-85
2021/08/09 05:28:55;;;;;;;1.95;1.85;;;18.10;66.30;;;;;;5033643;28;20418;-85
2021/08/09 05:31:21;;;;;;;2.88;2.45;;;18.10;66.40;;;;;;5032961;28;20040;-83
2021/08/09 05:33:47;;;;;;;2.17;2.08;;;18.10;66.40;;;;;;5037635;28;20044;-84
2021/08/09 05:36:13;;;;;;;2.13;2.03;;;18.10;66.50;;;;;;5035301;28;20037;-85
2021/08/09 05:38:39;;;;;;;1.95;1.85;;;18.10;66.50;;;;;;5035086;28;20032;-83
2021/08/09 05:41:06;;;;;;;2.20;2.10;;;18.10;66.60;;;;;;5036825;28;20031;-83
2021/08/09 05:43:33;;;;;;;3.20;2.50;;;18.10;66.60;;;;;;5036297;28;20041;-84
2021/08/09 05:45:59;;;;;;;2.03;1.92;;;18.00;66.60;;;;;;5037645;28;20398;-84
2021/08/09 05:48:25;;;;;;;2.20;2.10;;;18.00;66.70;;;;;;5037884;28;20056;-84
2021/08/09 05:50:51;;;;;;;2.10;2.00;;;17.90;66.80;;;;;;5032312;28;20037;-84
2021/08/09 05:53:17;;;;;;;1.90;1.80;;;17.90;66.90;;;;;;5054973;28;20477;-84
2021/08/09 05:55:44;;;;;;;2.10;2.00;;;17.80;67.00;;;;;;5020386;28;20045;-84
2021/08/09 05:58:10;;;;;;;2.00;1.90;;;17.80;67.10;;;;;;5035950;28;20033;-82
2021/08/09 06:00:36;;;;;;;2.10;2.00;;;17.80;67.20;;;;;;5036523;28;20041;-84
2021/08/09 06:03:03;;;;;;;1.92;1.83;;;17.80;67.20;;;;;;5034451;28;20032;-84
2021/08/09 06:05:29;;;;;;;2.25;2.08;;;17.80;68.10;;;;;;5020254;28;20046;-85
2021/08/09 06:07:55;;;;;;;2.33;2.22;;;17.70;67.30;;;;;;5038511;28;20040;-85
2021/08/09 06:10:22;;;;;;;2.08;1.98;;;17.70;67.40;;;;;;5038211;28;20068;-85
2021/08/09 06:12:49;;;;;;;6.30;2.08;;;17.70;67.50;;;;;;5020069;28;21610;-85
2021/08/09 06:15:15;;;;;;;2.20;2.10;;;17.70;67.50;;;;;;5034396;28;20049;-85
2021/08/09 06:17:41;;;;;;;2.00;1.90;;;17.70;67.50;;;;;;5033912;28;20475;-84
2021/08/09 06:20:07;;;;;;;1.95;1.85;;;17.70;67.50;;;;;;5039712;28;20034;-84
2021/08/09 06:22:33;;;;;;;2.10;2.00;;;17.70;67.50;;;;;;5036463;28;20033;-84
2021/08/09 06:24:59;;;;;;;1.88;1.77;;;17.70;67.50;;;;;;5036455;28;20513;-84
2021/08/09 06:27:26;;;;;;;1.83;1.73;;;17.80;67.60;;;;;;5035847;28;20382;-84
2021/08/09 06:29:52;;;;;;;1.83;1.73;;;17.80;67.50;;;;;;5031394;28;20033;-84
2021/08/09 06:32:18;;;;;;;2.47;2.10;;;17.80;67.50;;;;;;5053360;28;20022;-84
2021/08/09 06:34:44;;;;;;;2.15;2.05;;;17.80;67.50;;;;;;5037366;28;20516;-85
2021/08/09 06:37:10;;;;;;;2.20;2.10;;;17.90;67.50;;;;;;5035755;28;20037;-84
2021/08/09 06:39:36;;;;;;;6.00;2.45;;;17.90;67.50;;;;;;5036013;28;20040;-84
2021/08/09 06:42:04;;;;;;;1.98;1.88;;;17.90;67.40;;;;;;5016043;28;20378;-84
2021/08/09 06:44:33;;;;;;;2.13;2.03;;;18.00;67.50;;;;;;5036377;28;20022;-85
2021/08/09 06:46:59;;;;;;;2.22;2.13;;;18.00;67.40;;;;;;5036577;28;20025;-84
2021/08/09 06:49:26;;;;;;;1.98;1.88;;;18.10;67.40;;;;;;5036039;28;20044;-85
2021/08/09 06:51:52;;;;;;;2.22;2.13;;;18.10;67.40;;;;;;5035621;28;20034;-84
2021/08/09 06:54:23;;;;;;;11.95;3.13;;;18.10;67.40;;;;;;5035778;28;20029;-84
2021/08/09 06:56:50;;;;;;;2.45;2.35;;;18.20;67.40;;;;;;5032776;28;20037;-84
2021/08/09 06:59:17;;;;;;;2.22;2.13;;;18.20;67.30;;;;;;5038786;28;20057;-84
2021/08/09 07:01:43;;;;;;;2.17;2.08;;;18.20;67.30;;;;;;5034755;28;20041;-84
2021/08/09 07:04:09;;;;;;;5.00;2.30;;;18.20;67.30;;;;;;5036776;28;20032;-84
2021/08/09 07:06:35;;;;;;;6.45;2.25;;;18.30;67.30;;;;;;5035724;28;20096;-85
2021/08/09 07:09:03;;;;;;;2.08;1.98;;;18.30;67.30;;;;;;5030593;28;20034;-86
2021/08/09 07:11:29;;;;;;;1.88;1.77;;;18.30;67.30;;;;;;5003056;28;20060;-85
2021/08/09 07:13:56;;;;;;;2.20;2.10;;;18.40;67.30;;;;;;5036225;28;20359;-85
2021/08/09 07:16:25;;;;;;;2.15;2.05;;;18.40;67.30;;;;;;5033244;28;20052;-85
2021/08/09 07:18:52;;;;;;;2.05;1.95;;;18.40;67.30;;;;;;5036653;28;20030;-84
2021/08/09 07:21:18;;;;;;;2.20;2.10;;;18.50;67.30;;;;;;5035120;28;20036;-85
2021/08/09 07:23:44;;;;;;;2.97;2.40;;;18.50;67.30;;;;;;5015972;28;20027;-85
2021/08/09 07:26:10;;;;;;;2.13;2.03;;;18.50;67.30;;;;;;5038141;28;20022;-83
2021/08/09 07:28:37;;;;;;;2.20;2.10;;;18.50;67.30;;;;;;5035260;28;20390;-84
2021/08/09 07:31:03;;;;;;;2.40;2.30;;;18.50;67.30;;;;;;5034567;28;20028;-85
2021/08/09 07:33:29;;;;;;;2.08;1.98;;;18.60;67.40;;;;;;5036130;28;20045;-85
2021/08/09 07:35:55;;;;;;;2.28;2.17;;;18.60;67.40;;;;;;5014373;28;20390;-85
2021/08/09 07:38:21;;;;;;;2.20;2.10;;;18.70;67.30;;;;;;5049336;28;20033;-86
2021/08/09 07:40:47;;;;;;;2.20;2.10;;;18.80;67.30;;;;;;5034207;28;20033;-84
2021/08/09 07:43:13;;;;;;;2.20;2.10;;;18.90;67.20;;;;;;5035124;28;20040;-85
2021/08/09 07:45:39;;;;;;;2.13;2.03;;;19.00;67.10;;;;;;5035464;28;20029;-85
2021/08/09 07:48:05;;;;;;;2.13;2.03;;;19.00;66.90;;;;;;5033342;28;20029;-85
2021/08/09 07:50:32;;;;;;;2.22;2.13;;;19.10;66.90;;;;;;5035861;28;20036;-86
2021/08/09 07:52:58;;;;;;;2.20;2.10;;;19.30;66.80;;;;;;5036669;28;20037;-84
2021/08/09 07:55:25;;;;;;;2.50;2.40;;;19.40;66.60;;;;;;5033396;28;20407;-85
2021/08/09 07:57:52;;;;;;;2.20;2.10;;;19.40;66.50;;;;;;5034562;28;20068;-85
2021/08/09 08:00:18;;;;;;;2.40;2.30;;;19.50;66.50;;;;;;5033538;28;20045;-85
2021/08/09 08:02:44;;;;;;;2.65;2.55;;;19.60;66.50;;;;;;5032705;28;20466;-86
2021/08/09 08:05:11;;;;;;;2.70;2.60;;;19.60;67.20;;;;;;5037838;28;20030;-85
2021/08/09 08:07:37;;;;;;;2.47;2.38;;;19.70;66.50;;;;;;5018085;28;20033;-85
2021/08/09 08:10:03;;;;;;;2.50;2.40;;;19.70;66.40;;;;;;5035272;28;20394;-84
2021/08/09 08:12:29;;;;;;;2.70;2.60;;;19.70;66.50;;;;;;5034586;28;20021;-84
2021/08/09 08:14:55;;;;;;;2.60;2.50;;;19.70;66.40;;;;;;5013867;28;20041;-86
2021/08/09 08:17:23;;;;;;;2.53;2.42;;;19.80;66.50;;;;;;5046856;28;20044;-84
2021/08/09 08:19:50;;;;;;;2.75;2.65;;;19.80;66.50;;;;;;5035673;28;20025;-85
2021/08/09 08:22:16;;;;;;;4.90;2.70;;;19.80;66.50;;;;;;5017668;28;20513;-85
2021/08/09 08:24:42;;;;;;;2.60;2.50;;;19.90;66.50;;;;;;5034056;28;20462;-84
2021/08/09 08:27:08;;;;;;;2.70;2.60;;;19.90;66.50;;;;;;5031462;28;20026;-85
2021/08/09 08:29:34;;;;;;;2.80;2.70;;;19.90;66.50;;;;;;5034330;28;20426;-85
2021/08/09 08:32:01;;;;;;;2.95;2.83;;;19.90;66.50;;;;;;5036426;28;20030;-86
2021/08/09 08:34:27;;;;;;;2.65;2.55;;;20.00;66.50;;;;;;5032387;28;20046;-85
2021/08/09 08:36:53;;;;;;;4.43;2.85;;;20.10;66.50;;;;;;5035198;28;20391;-85
2021/08/09 08:39:19;;;;;;;2.63;2.53;;;20.10;66.40;;;;;;5033655;28;20036;-84
2021/08/09 08:41:45;;;;;;;2.88;2.78;;;20.20;66.40;;;;;;5030469;28;20037;-85
2021/08/09 08:44:18;;;;;;;3.05;2.92;;;20.30;66.40;;;;;;5036864;28;20040;-84
2021/08/09 08:46:44;;;;;;;3.42;3.33;;;20.40;66.20;;;;;;5032668;28;20486;-84
2021/08/09 08:49:14;;;;;;;4.43;3.58;;;20.50;66.10;;;;;;5033963;28;20541;-85
2021/08/09 08:51:44;;;;;;;3.50;3.40;;;20.70;65.90;;;;;;5034301;28;20044;-85
2021/08/09 08:54:12;;;;;;;3.55;3.35;;;20.80;65.70;;;;;;5015380;28;20621;-85
2021/08/09 08:56:42;;;;;;;3.50;3.35;;;20.90;65.50;;;;;;5033296;28;20060;-85
2021/08/09 08:59:13;;;;;;;3.95;3.75;;;21.10;65.30;;;;;;5050433;28;20032;-85
2021/08/09 09:01:43;;;;;;;7.63;3.50;;;21.20;65.10;;;;;;5033915;28;20038;-85
2021/08/09 09:04:19;;;;;;;3.78;3.58;;;21.40;64.90;;;;;;5034887;28;20056;-85
2021/08/09 09:06:45;;;;;;;3.10;3.00;;;21.60;64.70;;;;;;5032794;28;20028;-85
2021/08/09 09:09:24;;;;;;;3.50;3.38;;;21.70;64.40;;;;;;5014883;28;20037;-86
2021/08/09 09:11:50;;;;;;;3.70;3.40;;;21.80;64.30;;;;;;5029402;28;20028;-85
2021/08/09 09:14:27;;;;;;;4.00;3.80;;;21.90;64.20;;;;;;5051498;28;20033;-85
2021/08/09 09:16:53;;;;;;;3.85;3.65;;;21.90;64.10;;;;;;5035527;28;20045;-84
2021/08/09 09:19:35;;;;;;;3.28;3.17;;;22.00;64.10;;;;;;5017241;28;20033;-86
2021/08/09 09:22:03;;;;;;;4.03;3.83;;;22.00;64.20;;;;;;5034418;28;20029;-85
2021/08/09 09:24:29;;;;;;;4.20;4.00;;;22.00;64.20;;;;;;5032359;28;20017;-85
2021/08/09 09:26:59;;;;;;;3.75;3.55;;;22.00;64.20;;;;;;5028380;28;20033;-85
2021/08/09 09:29:26;;;;;;;3.80;3.60;;;22.00;64.10;;;;;;5042659;28;20025;-82
2021/08/09 09:31:53;;;;;;;3.78;3.58;;;22.10;64.00;;;;;;5033600;28;20478;-84
2021/08/09 09:34:20;;;;;;;4.00;3.80;;;22.20;63.80;;;;;;5017093;28;20398;-83
2021/08/09 09:36:54;;;;;;;4.22;4.03;;;22.30;63.60;;;;;;5034088;28;20048;-85
2021/08/09 09:39:36;;;;;;;4.28;4.07;;;22.40;63.40;;;;;;5032269;28;20404;-84
2021/08/09 09:42:06;;;;;;;3.97;3.78;;;22.50;63.20;;;;;;5015048;28;20041;-84
2021/08/09 09:44:33;;;;;;;4.03;3.83;;;22.70;63.10;;;;;;5033013;28;20498;-85
2021/08/09 09:47:32;;;;;;;4.30;4.00;;;22.70;63.00;;;;;;5033888;28;20113;-86
2021/08/09 09:49:59;;;;;;;3.70;3.50;;;22.70;63.00;;;;;;4974839;28;20447;-85
2021/08/09 09:52:35;;;;;;;4.03;3.83;;;22.80;62.90;;;;;;4952688;28;20054;-85
2021/08/09 09:55:08;;;;;;;4.18;3.97;;;22.80;62.80;;;;;;4967480;28;20050;-87
2021/08/09 09:57:35;;;;;;;4.32;4.13;;;22.90;62.60;;;;;;4974549;28;20049;-86
2021/08/09 10:00:02;;;;;;;4.63;4.43;;;22.90;62.50;;;;;;4954380;28;20043;-84
2021/08/09 10:02:28;;;;;;;4.28;4.07;;;22.90;62.50;;;;;;4954588;28;20047;-85
2021/08/09 10:04:54;;;;;;;4.53;4.30;;;22.90;62.50;;;;;;4974255;28;20034;-86
2021/08/09 10:07:23;;;;;;;4.35;4.15;;;23.00;62.50;;;;;;4952503;28;20432;-85
2021/08/09 10:09:49;;;;;;;4.30;4.10;;;23.00;62.40;;;;;;4966516;28;20030;-85
2021/08/09 10:12:20;;;;;;;13.40;5.32;;;23.00;62.30;;;;;;4953882;28;20090;-85
2021/08/09 10:14:46;;;;;;;4.20;4.00;;;23.10;62.20;;;;;;4971064;28;20423;-85
2021/08/09 10:17:13;;;;;;;4.60;4.20;;;23.10;62.10;;;;;;4975181;28;20047;-83
2021/08/09 10:19:39;;;;;;;4.43;4.22;;;23.10;62.10;;;;;;4954422;28;20070;-86
2021/08/09 10:22:05;;;;;;;6.07;5.03;;;23.00;62.10;;;;;;4989460;28;20030;-85
2021/08/09 10:24:41;;;;;;;4.40;4.20;;;23.10;62.00;;;;;;4977910;28;20403;-85
2021/08/09 10:27:07;;;;;;;3.85;3.65;;;23.20;61.80;;;;;;5017364;28;20037;-85
2021/08/09 10:29:37;;;;;;;4.50;4.30;;;23.30;61.60;;;;;;5019255;28;20032;-84
2021/08/09 10:32:31;;;;;;;4.45;4.25;;;23.40;61.50;;;;;;5035416;28;20034;-84
2021/08/09 10:34:57;;;;;;;4.30;4.10;;;23.40;61.30;;;;;;5033162;28;20053;-86
2021/08/09 10:37:23;;;;;;;4.05;3.85;;;23.40;61.20;;;;;;5036097;28;20053;-84
2021/08/09 10:39:53;;;;;;;5.28;5.03;;;23.50;61.20;;;;;;5020035;28;20360;-86
2021/08/09 10:42:32;;;;;;;5.00;4.80;;;23.50;61.10;;;;;;5036062;28;20040;-85
2021/08/09 10:44:59;;;;;;;4.78;4.57;;;23.70;61.00;;;;;;5017803;28;20383;-86
2021/08/09 10:47:54;;;;;;;5.57;5.32;;;24.00;60.50;;;;;;5037287;28;20036;-86
2021/08/09 10:50:25;;;;;;;6.65;6.25;;;24.30;59.80;;;;;;5037627;28;20029;-86
2021/08/09 10:52:52;;;;;;;7.32;7.00;;;24.80;59.40;;;;;;5035995;28;20029;-84
2021/08/09 10:55:31;;;;;;;7.10;6.80;;;25.10;58.90;;;;;;5019490;28;20033;-85
2021/08/09 10:57:57;;;;;;;8.35;7.95;;;25.40;58.50;;;;;;5040953;28;20037;-85
2021/08/09 11:00:38;;;;;;;8.30;7.90;;;25.70;58.20;;;;;;5046911;28;20037;-86
2021/08/09 11:03:12;;;;;;;8.48;8.07;;;26.00;57.90;;;;;;5017474;28;20379;-86
2021/08/09 11:05:38;;;;;;;9.15;8.65;;;26.20;57.60;;;;;;5033990;28;20033;-85
2021/08/09 11:08:17;;;;;;;7.22;6.93;;;26.40;57.50;;;;;;5035192;28;20036;-86
2021/08/09 11:10:58;;;;;;;7.35;7.05;;;26.50;57.30;;;;;;5035272;28;20022;-86
2021/08/09 11:13:28;;;;;;;7.45;7.15;;;26.40;57.30;;;;;;5036740;28;20037;-85
2021/08/09 11:15:57;;;;;;;7.28;6.97;;;26.40;57.40;;;;;;5019126;28;20416;-85
2021/08/09 11:18:23;;;;;;;7.25;6.95;;;26.50;57.30;;;;;;5035552;28;20036;-86
2021/08/09 11:21:10;;;;;;;7.95;7.57;;;26.60;57.20;;;;;;5031668;28;20037;-86
2021/08/09 11:23:37;;;;;;;7.20;6.90;;;26.70;56.90;;;;;;5046614;28;20029;-86
2021/08/09 11:26:04;;;;;;;8.48;8.07;;;26.80;56.80;;;;;;5038023;28;20036;-86
2021/08/09 11:28:30;;;;;;;7.90;7.50;;;26.90;56.60;;;;;;5019124;28;20034;-86
2021/08/09 11:31:03;;;;;;;8.25;7.85;;;26.90;56.40;;;;;;5017566;28;20033;-86
2021/08/09 11:33:36;;;;;;;8.13;7.72;;;26.90;56.40;;;;;;5035843;28;20489;-85
2021/08/09 11:36:13;;;;;;;8.77;8.38;;;26.70;56.40;;;;;;5032751;28;20022;-85
2021/08/09 11:38:55;;;;;;;9.63;9.13;;;26.60;56.50;;;;;;5034488;28;20030;-86
2021/08/09 11:41:23;;;;;;;8.25;7.85;;;26.60;56.60;;;;;;5053509;28;20038;-84
2021/08/09 11:43:51;;;;;;;8.48;8.07;;;26.60;56.50;;;;;;5002426;28;20044;-86
2021/08/09 11:46:18;;;;;;;8.52;8.13;;;26.60;56.40;;;;;;5034244;28;20037;-86
2021/08/09 11:48:48;;;;;;;6.13;5.82;;;26.50;56.30;;;;;;5033317;28;20036;-85
2021/08/09 11:51:24;;;;;;;6.63;6.32;;;26.40;56.30;;;;;;5032314;28;20080;-86
2021/08/09 11:53:52;;;;;;;7.88;7.50;;;26.40;56.40;;;;;;5031779;28;20026;-86
2021/08/09 11:56:30;;;;;;;9.15;8.75;;;26.30;56.30;;;;;;5036679;28;20025;-86
2021/08/09 11:58:57;;;;;;;6.85;6.55;;;26.30;56.20;;;;;;5035680;28;20486;-86
2021/08/09 12:01:45;;;;;;;8.52;8.10;;;26.20;56.20;;;;;;5034606;28;20489;-86
2021/08/09 12:04:13;;;;;;;6.38;6.07;;;26.10;56.20;;;;;;5034544;28;20378;-85
2021/08/09 12:06:48;;;;;;;6.20;5.90;;;25.90;56.30;;;;;;5033977;28;20044;-86
2021/08/09 12:09:19;;;;;;;5.40;5.10;;;25.80;56.40;;;;;;5032031;28;20038;-85
2021/08/09 12:12:05;;;;;;;5.57;5.28;;;25.60;56.60;;;;;;5031847;28;21010;-86
2021/08/09 12:14:32;;;;;;;5.82;5.53;;;25.50;56.70;;;;;;5060920;28;20418;-86
2021/08/09 12:17:12;;;;;;;6.00;5.70;;;25.30;57.00;;;;;;5035267;28;20046;-86
2021/08/09 12:19:39;;;;;;;7.07;6.78;;;25.10;56.90;;;;;;5034447;28;20028;-85
2021/08/09 12:22:15;;;;;;;7.07;6.68;;;25.00;57.00;;;;;;5032046;28;20040;-86
2021/08/09 12:24:42;;;;;;;6.78;6.47;;;25.00;57.00;;;;;;5033966;28;20044;-83
2021/08/09 12:27:15;;;;;;;6.03;5.72;;;25.00;57.00;;;;;;5031395;28;20050;-85
2021/08/09 12:29:58;;;;;;;6.13;5.82;;;25.00;56.80;;;;;;5032531;28;20037;-86
2021/08/09 12:32:26;;;;;;;6.72;6.43;;;24.90;56.70;;;;;;5029984;28;20037;-86
2021/08/09 12:34:52;;;;;;;5.47;5.22;;;24.90;56.80;;;;;;5035508;28;20038;-85
2021/08/09 12:37:18;;;;;;;5.45;5.20;;;24.90;56.80;;;;;;5017598;28;20048;-86
2021/08/09 12:39:44;;;;;;;7.18;6.88;;;24.80;56.80;;;;;;5017686;28;20051;-86
2021/08/09 12:42:18;;;;;;;4.53;4.32;;;24.80;56.90;;;;;;5032124;28;20422;-85
2021/08/09 12:44:45;;;;;;;3.85;3.65;;;24.60;56.90;;;;;;5029250;28;20034;-85
2021/08/09 12:47:12;;;;;;;3.92;3.72;;;24.60;57.10;;;;;;5035330;28;20029;-86
2021/08/09 12:49:38;;;;;;;4.10;3.90;;;24.60;57.10;;;;;;5032644;28;20029;-86
2021/08/09 12:52:05;;;;;;;3.78;3.58;;;24.70;57.10;;;;;;5035058;28;20030;-85
2021/08/09 12:54:31;;;;;;;8.80;4.40;;;24.70;57.00;;;;;;5034895;28;20036;-84